createdAt,value
2022-07-25T00:00:21.393Z,3.08
2022-07-25T00:00:53.855Z,3.22
2022-07-25T00:01:26.481Z,3.35
2022-07-25T00:02:02.535Z,3.40
2022-07-25T00:02:34.836Z,3.20
2022-07-25T00:03:06.842Z,3.10
2022-07-25T00:03:42.951Z,3.13
2022-07-25T00:04:15.035Z,2.70
2022-07-25T00:04:47.215Z,3.40
2022-07-25T00:05:19.452Z,3.00
2022-07-25T00:05:51.945Z,3.55
2022-07-25T00:06:23.988Z,3.13
2022-07-25T00:06:56.059Z,3.38
2022-07-25T00:07:28.446Z,2.92
2022-07-25T00:08:00.533Z,3.40
2022-07-25T00:08:32.573Z,3.40
2022-07-25T00:09:05.123Z,3.10
2022-07-25T00:09:37.124Z,3.35
2022-07-25T00:10:10.330Z,3.25
2022-07-25T00:10:42.798Z,2.92
2022-07-25T00:11:14.877Z,2.88
2022-07-25T00:11:46.900Z,3.08
2022-07-25T00:12:19.143Z,3.03
2022-07-25T00:12:51.175Z,3.05
2022-07-25T00:13:23.275Z,3.03
2022-07-25T00:13:55.399Z,3.67
2022-07-25T00:14:27.471Z,3.38
2022-07-25T00:14:59.612Z,3.10
2022-07-25T00:15:31.722Z,2.80
2022-07-25T00:16:03.930Z,3.20
2022-07-25T00:16:36.041Z,3.10
2022-07-25T00:17:08.153Z,3.38
2022-07-25T00:17:40.642Z,2.88
2022-07-25T00:18:12.713Z,3.17
2022-07-25T00:18:44.783Z,3.35
2022-07-25T00:19:17.036Z,3.38
2022-07-25T00:19:49.175Z,3.38
2022-07-25T00:20:21.214Z,2.88
2022-07-25T00:20:53.258Z,3.35
2022-07-25T00:21:25.308Z,3.17
2022-07-25T00:21:58.454Z,3.25
2022-07-25T00:22:30.522Z,3.13
2022-07-25T00:23:02.614Z,3.50
2022-07-25T00:23:34.766Z,3.22
2022-07-25T00:24:07.445Z,3.25
2022-07-25T00:24:39.837Z,3.10
2022-07-25T00:25:13.489Z,3.10
2022-07-25T00:25:45.594Z,3.20
2022-07-25T00:26:17.771Z,2.90
2022-07-25T00:26:50.091Z,3.00
2022-07-25T00:27:22.450Z,3.33
2022-07-25T00:27:54.558Z,3.10
2022-07-25T00:28:26.571Z,2.67
2022-07-25T00:28:58.607Z,3.42
2022-07-25T00:29:30.812Z,2.90
2022-07-25T00:30:03.104Z,3.47
2022-07-25T00:30:35.230Z,3.00
2022-07-25T00:31:07.347Z,3.25
2022-07-25T00:31:39.565Z,3.33
2022-07-25T00:32:11.799Z,2.97
2022-07-25T00:32:43.883Z,2.83
2022-07-25T00:33:15.981Z,3.08
2022-07-25T00:33:48.075Z,3.30
2022-07-25T00:34:20.112Z,3.13
2022-07-25T00:34:52.178Z,3.00
2022-07-25T00:35:24.248Z,2.90
2022-07-25T00:35:56.320Z,3.03
2022-07-25T00:36:28.293Z,3.22
2022-07-25T00:37:00.546Z,3.47
2022-07-25T00:37:32.667Z,2.83
2022-07-25T00:38:04.792Z,3.15
2022-07-25T00:38:37.057Z,3.20
2022-07-25T00:39:09.096Z,2.90
2022-07-25T00:39:41.176Z,3.30
2022-07-25T00:40:13.256Z,3.47
2022-07-25T00:40:45.257Z,3.55
2022-07-25T00:41:26.291Z,3.65
2022-07-25T00:41:58.430Z,3.30
2022-07-25T00:42:30.657Z,3.80
2022-07-25T00:43:02.761Z,3.13
2022-07-25T00:43:34.790Z,3.60
2022-07-25T00:44:07.261Z,3.30
2022-07-25T00:44:39.581Z,3.28
2022-07-25T00:45:11.580Z,3.05
2022-07-25T00:45:43.766Z,2.90
2022-07-25T00:46:19.039Z,2.92
2022-07-25T00:46:53.299Z,3.83
2022-07-25T00:47:25.497Z,3.20
2022-07-25T00:47:57.584Z,3.47
2022-07-25T00:48:30.069Z,3.58
2022-07-25T00:49:02.216Z,3.45
2022-07-25T00:49:34.477Z,3.33
2022-07-25T00:50:06.803Z,3.60
2022-07-25T00:50:40.057Z,3.13
2022-07-25T00:51:12.157Z,3.53
2022-07-25T00:51:44.893Z,3.35
2022-07-25T00:52:16.968Z,3.80
2022-07-25T00:52:49.115Z,3.50
2022-07-25T00:53:21.445Z,3.55
2022-07-25T00:53:53.711Z,3.50
2022-07-25T00:54:26.035Z,3.28
2022-07-25T00:54:58.267Z,3.45
2022-07-25T00:55:30.455Z,3.10
2022-07-25T00:56:03.124Z,3.72
2022-07-25T00:56:35.368Z,3.40
2022-07-25T00:57:07.407Z,3.22
2022-07-25T00:57:39.528Z,3.70
2022-07-25T00:58:11.567Z,3.70
2022-07-25T00:58:45.541Z,3.20
2022-07-25T00:59:18.315Z,3.50
2022-07-25T00:59:50.425Z,3.60
2022-07-25T01:00:22.673Z,3.88
2022-07-25T01:00:54.782Z,3.25
2022-07-25T01:01:26.881Z,3.95
2022-07-25T01:01:59.134Z,3.30
2022-07-25T01:02:31.340Z,3.53
2022-07-25T01:03:03.537Z,3.33
2022-07-25T01:03:35.729Z,2.90
2022-07-25T01:04:09.135Z,3.80
2022-07-25T01:04:41.384Z,3.50
2022-07-25T01:05:13.611Z,3.50
2022-07-25T01:05:48.979Z,3.55
2022-07-25T01:06:24.801Z,3.72
2022-07-25T01:06:56.984Z,4.00
2022-07-25T01:07:29.645Z,3.78
2022-07-25T01:08:02.192Z,4.18
2022-07-25T01:08:34.343Z,3.88
2022-07-25T01:09:06.966Z,3.53
2022-07-25T01:09:38.987Z,3.70
2022-07-25T01:10:11.036Z,3.60
2022-07-25T01:10:43.068Z,3.78
2022-07-25T01:11:15.303Z,3.80
2022-07-25T01:11:47.401Z,3.63
2022-07-25T01:12:19.417Z,3.75
2022-07-25T01:12:54.929Z,3.78
2022-07-25T01:13:26.994Z,3.70
2022-07-25T01:13:58.993Z,3.25
2022-07-25T01:14:31.014Z,3.45
2022-07-25T01:15:03.187Z,3.53
2022-07-25T01:15:35.469Z,4.05
2022-07-25T01:16:07.750Z,3.20
2022-07-25T01:16:41.291Z,3.65
2022-07-25T01:17:13.498Z,3.67
2022-07-25T01:17:45.664Z,3.45
2022-07-25T01:18:17.700Z,3.70
2022-07-25T01:18:49.741Z,4.15
2022-07-25T01:19:21.798Z,3.50
2022-07-25T01:19:53.848Z,3.53
2022-07-25T01:20:27.029Z,3.85
2022-07-25T01:20:59.032Z,3.60
2022-07-25T01:21:31.055Z,4.10
2022-07-25T01:22:03.522Z,3.90
2022-07-25T01:22:35.584Z,3.95
2022-07-25T01:23:07.619Z,3.92
2022-07-25T01:23:39.617Z,3.70
2022-07-25T01:24:11.671Z,4.18
2022-07-25T01:24:43.718Z,4.13
2022-07-25T01:25:16.217Z,3.85
2022-07-25T01:25:48.312Z,3.85
2022-07-25T01:26:20.399Z,4.05
2022-07-25T01:26:52.452Z,3.88
2022-07-25T01:27:24.520Z,3.63
2022-07-25T01:27:57.782Z,3.47
2022-07-25T01:28:29.818Z,3.90
2022-07-25T01:29:01.909Z,3.75
2022-07-25T01:29:33.995Z,3.95
2022-07-25T01:30:09.468Z,3.70
2022-07-25T01:30:41.624Z,3.58
2022-07-25T01:31:13.746Z,3.78
2022-07-25T01:31:45.852Z,4.40
2022-07-25T01:32:17.912Z,4.00
2022-07-25T01:32:50.033Z,3.70
2022-07-25T01:33:22.779Z,4.20
2022-07-25T01:33:54.840Z,4.13
2022-07-25T01:34:26.935Z,3.80
2022-07-25T01:34:58.966Z,4.03
2022-07-25T01:35:30.983Z,4.05
2022-07-25T01:36:03.032Z,3.90
2022-07-25T01:36:35.088Z,3.50
2022-07-25T01:37:07.193Z,3.60
2022-07-25T01:37:39.328Z,4.10
2022-07-25T01:38:11.770Z,4.00
2022-07-25T01:38:43.804Z,4.82
2022-07-25T01:39:15.824Z,3.80
2022-07-25T01:39:47.823Z,4.35
2022-07-25T01:40:19.827Z,3.80
2022-07-25T01:40:51.963Z,3.80
2022-07-25T01:41:23.975Z,4.03
2022-07-25T01:41:55.956Z,4.18
2022-07-25T01:42:28.313Z,4.30
2022-07-25T01:43:00.434Z,3.90
2022-07-25T01:43:32.583Z,3.50
2022-07-25T01:44:05.125Z,4.40
2022-07-25T01:44:37.475Z,4.30
2022-07-25T01:45:10.132Z,4.05
2022-07-25T01:45:42.286Z,3.60
2022-07-25T01:46:14.411Z,3.90
2022-07-25T01:46:46.652Z,4.05
2022-07-25T01:47:18.819Z,3.85
2022-07-25T01:47:50.842Z,4.15
2022-07-25T01:48:22.844Z,4.32
2022-07-25T01:48:54.900Z,3.92
2022-07-25T01:49:26.984Z,3.90
2022-07-25T01:49:59.067Z,3.88
2022-07-25T01:50:31.098Z,4.20
2022-07-25T01:51:03.501Z,3.80
2022-07-25T01:51:36.078Z,3.67
2022-07-25T01:52:08.123Z,3.80
2022-07-25T01:52:40.433Z,4.03
2022-07-25T01:53:12.416Z,3.67
2022-07-25T01:53:44.642Z,4.25
2022-07-25T01:54:17.676Z,4.13
2022-07-25T01:54:49.774Z,4.07
2022-07-25T01:55:21.868Z,3.92
2022-07-25T01:55:54.429Z,4.13
2022-07-25T01:56:31.805Z,4.10
2022-07-25T01:57:05.787Z,4.22
2022-07-25T01:57:39.369Z,3.97
2022-07-25T01:58:12.160Z,4.20
2022-07-25T01:58:44.426Z,4.22
2022-07-25T01:59:16.906Z,3.90
2022-07-25T01:59:48.993Z,3.90
2022-07-25T02:00:21.033Z,4.05
2022-07-25T02:00:53.580Z,4.22
2022-07-25T02:01:25.642Z,4.63
2022-07-25T02:01:57.780Z,4.03
2022-07-25T02:02:29.871Z,4.20
2022-07-25T02:03:20.206Z,4.20
2022-07-25T02:03:52.235Z,4.20
2022-07-25T02:04:24.324Z,4.25
2022-07-25T02:04:56.463Z,3.78
2022-07-25T02:05:28.514Z,4.32
2022-07-25T02:06:04.822Z,4.00
2022-07-25T02:06:36.936Z,4.55
2022-07-25T02:07:09.008Z,4.20
2022-07-25T02:07:41.092Z,4.30
2022-07-25T02:08:13.232Z,4.20
2022-07-25T02:08:45.380Z,4.55
2022-07-25T02:09:17.358Z,4.35
2022-07-25T02:09:53.326Z,4.05
2022-07-25T02:10:28.497Z,4.53
2022-07-25T02:11:00.853Z,3.97
2022-07-25T02:11:33.045Z,4.47
2022-07-25T02:12:07.337Z,3.83
2022-07-25T02:12:39.401Z,4.35
2022-07-25T02:13:11.680Z,4.25
2022-07-25T02:13:44.616Z,4.20
2022-07-25T02:14:16.650Z,4.05
2022-07-25T02:14:48.645Z,3.97
2022-07-25T02:15:20.618Z,3.50
2022-07-25T02:15:52.831Z,4.00
2022-07-25T02:16:28.901Z,4.30
2022-07-25T02:17:01.566Z,4.60
2022-07-25T02:17:33.731Z,4.30
2022-07-25T02:18:05.800Z,4.72
2022-07-25T02:18:37.879Z,4.20
2022-07-25T02:19:10.211Z,4.05
2022-07-25T02:19:42.520Z,4.10
2022-07-25T02:20:14.604Z,4.25
2022-07-25T02:20:46.718Z,4.32
2022-07-25T02:21:18.798Z,4.45
2022-07-25T02:21:50.797Z,3.88
2022-07-25T02:22:22.779Z,3.85
2022-07-25T02:22:55.803Z,4.70
2022-07-25T02:23:27.837Z,3.90
2022-07-25T02:23:59.799Z,4.40
2022-07-25T02:24:32.524Z,4.18
2022-07-25T02:25:04.822Z,4.20
2022-07-25T02:25:37.007Z,4.00
2022-07-25T02:26:09.228Z,3.72
2022-07-25T02:26:41.291Z,3.75
2022-07-25T02:27:13.356Z,4.40
2022-07-25T02:27:45.387Z,4.60
2022-07-25T02:28:17.422Z,4.05
2022-07-25T02:28:50.489Z,4.32
2022-07-25T02:29:22.546Z,4.05
2022-07-25T02:29:54.895Z,4.18
2022-07-25T02:30:27.038Z,4.20
2022-07-25T02:30:59.166Z,4.18
2022-07-25T02:31:31.322Z,4.25
2022-07-25T02:32:03.522Z,4.15
2022-07-25T02:32:35.513Z,4.20
2022-07-25T02:33:07.541Z,4.50
2022-07-25T02:33:39.652Z,4.03
2022-07-25T02:34:11.976Z,4.00
2022-07-25T02:34:44.004Z,4.55
2022-07-25T02:35:16.072Z,4.40
2022-07-25T02:35:48.154Z,4.18
2022-07-25T02:36:20.187Z,4.50
2022-07-25T02:36:52.209Z,4.63
2022-07-25T02:37:24.422Z,4.50
2022-07-25T02:37:56.455Z,4.50
2022-07-25T02:38:28.627Z,4.18
2022-07-25T02:39:00.713Z,3.97
2022-07-25T02:39:32.840Z,4.30
2022-07-25T02:40:05.928Z,4.25
2022-07-25T02:40:37.951Z,4.22
2022-07-25T02:41:10.083Z,4.43
2022-07-25T02:41:42.743Z,4.55
2022-07-25T02:42:15.068Z,4.22
2022-07-25T02:42:47.098Z,4.50
2022-07-25T02:43:19.553Z,4.22
2022-07-25T02:43:51.664Z,4.50
2022-07-25T02:44:23.856Z,4.38
2022-07-25T02:44:55.889Z,4.40
2022-07-25T02:45:28.091Z,4.20
2022-07-25T02:46:00.417Z,4.53
2022-07-25T02:46:33.127Z,3.90
2022-07-25T02:47:05.252Z,4.00
2022-07-25T02:47:37.367Z,4.75
2022-07-25T02:48:09.355Z,4.60
2022-07-25T02:48:41.466Z,4.32
2022-07-25T02:49:13.672Z,4.15
2022-07-25T02:49:45.776Z,4.35
2022-07-25T02:50:17.910Z,4.13
2022-07-25T02:50:49.959Z,3.78
2022-07-25T02:51:22.016Z,4.75
2022-07-25T02:51:54.375Z,4.40
2022-07-25T02:52:26.488Z,4.03
2022-07-25T02:52:58.652Z,4.30
2022-07-25T02:53:55.496Z,4.00
2022-07-25T02:54:22.864Z,4.68
2022-07-25T02:54:54.899Z,4.38
2022-07-25T02:55:27.055Z,4.10
2022-07-25T02:55:59.303Z,4.60
2022-07-25T02:56:33.242Z,4.25
2022-07-25T02:57:05.303Z,4.13
2022-07-25T02:57:37.419Z,4.68
2022-07-25T02:58:09.519Z,4.68
2022-07-25T02:58:41.563Z,4.25
2022-07-25T02:59:13.727Z,4.40
2022-07-25T02:59:45.758Z,4.07
2022-07-25T03:00:18.190Z,4.18
2022-07-25T03:00:50.377Z,4.75
2022-07-25T03:01:22.404Z,4.20
2022-07-25T03:01:54.477Z,4.25
2022-07-25T03:02:27.329Z,4.50
2022-07-25T03:02:59.543Z,4.63
2022-07-25T03:03:31.598Z,4.25
2022-07-25T03:04:04.139Z,4.47
2022-07-25T03:04:36.620Z,4.25
2022-07-25T03:05:12.581Z,4.78
2022-07-25T03:05:44.613Z,4.10
2022-07-25T03:06:16.823Z,4.25
2022-07-25T03:06:48.925Z,4.43
2022-07-25T03:07:21.019Z,4.20
2022-07-25T03:07:53.094Z,4.25
2022-07-25T03:08:25.244Z,4.47
2022-07-25T03:08:57.286Z,4.88
2022-07-25T03:09:29.345Z,4.32
2022-07-25T03:10:01.671Z,4.50
2022-07-25T03:10:34.372Z,4.25
2022-07-25T03:11:06.647Z,4.43
2022-07-25T03:11:38.677Z,4.60
2022-07-25T03:12:10.765Z,4.10
2022-07-25T03:12:43.487Z,4.35
2022-07-25T03:13:15.637Z,4.07
2022-07-25T03:13:47.651Z,4.22
2022-07-25T03:14:19.799Z,4.28
2022-07-25T03:14:51.821Z,4.47
2022-07-25T03:15:23.847Z,4.60
2022-07-25T03:15:55.889Z,4.40
2022-07-25T03:16:27.959Z,4.35
2022-07-25T03:17:00.161Z,4.38
2022-07-25T03:17:32.300Z,4.40
2022-07-25T03:18:04.321Z,4.35
2022-07-25T03:18:36.386Z,4.60
2022-07-25T03:19:10.654Z,4.20
2022-07-25T03:19:42.816Z,4.65
2022-07-25T03:20:14.829Z,4.47
2022-07-25T03:20:46.872Z,4.88
2022-07-25T03:21:18.923Z,4.47
2022-07-25T03:21:51.023Z,4.65
2022-07-25T03:22:23.251Z,4.30
2022-07-25T03:22:55.321Z,4.70
2022-07-25T03:23:28.389Z,4.68
2022-07-25T03:24:00.552Z,4.13
2022-07-25T03:24:32.657Z,4.55
2022-07-25T03:25:05.194Z,4.75
2022-07-25T03:25:37.259Z,4.85
2022-07-25T03:26:09.498Z,4.50
2022-07-25T03:26:41.569Z,5.18
2022-07-25T03:27:13.683Z,5.95
2022-07-25T03:27:46.219Z,6.53
2022-07-25T03:28:18.272Z,5.63
2022-07-25T03:28:50.334Z,6.20
2022-07-25T03:29:22.505Z,6.57
2022-07-25T03:29:54.563Z,6.55
2022-07-25T03:30:26.573Z,5.85
2022-07-25T03:30:58.620Z,6.00
2022-07-25T03:31:30.701Z,6.43
2022-07-25T03:32:02.836Z,7.15
2022-07-25T03:32:34.896Z,6.35
2022-07-25T03:33:06.957Z,6.35
2022-07-25T03:33:39.067Z,6.47
2022-07-25T03:34:11.125Z,7.10
2022-07-25T03:34:43.787Z,6.57
2022-07-25T03:35:16.252Z,6.68
2022-07-25T03:35:48.282Z,6.97
2022-07-25T03:36:20.292Z,7.00
2022-07-25T03:36:52.477Z,6.32
2022-07-25T03:37:24.547Z,6.28
2022-07-25T03:37:56.625Z,6.43
2022-07-25T03:38:29.654Z,6.53
2022-07-25T03:39:05.460Z,6.85
2022-07-25T03:39:37.952Z,6.82
2022-07-25T03:40:10.283Z,7.00
2022-07-25T03:40:42.307Z,7.03
2022-07-25T03:41:14.309Z,7.35
2022-07-25T03:41:46.634Z,6.65
2022-07-25T03:42:22.402Z,7.20
2022-07-25T03:42:57.214Z,6.45
2022-07-25T03:43:30.416Z,6.97
2022-07-25T03:44:02.606Z,6.50
2022-07-25T03:44:34.859Z,6.72
2022-07-25T03:45:07.240Z,6.88
2022-07-25T03:45:39.462Z,6.70
2022-07-25T03:46:11.622Z,6.90
2022-07-25T03:46:43.690Z,6.97
2022-07-25T03:47:20.600Z,6.80
2022-07-25T03:47:52.955Z,7.10
2022-07-25T03:48:25.032Z,6.57
2022-07-25T03:48:57.129Z,7.18
2022-07-25T03:49:29.249Z,6.70
2022-07-25T03:50:01.319Z,7.38
2022-07-25T03:50:33.454Z,7.65
2022-07-25T03:51:07.213Z,6.93
2022-07-25T03:51:39.525Z,7.07
2022-07-25T03:52:11.588Z,7.05
2022-07-25T03:52:43.637Z,7.10
2022-07-25T03:53:15.665Z,6.95
2022-07-25T03:54:03.146Z,7.47
2022-07-25T03:54:35.473Z,7.13
2022-07-25T03:55:08.581Z,7.07
2022-07-25T03:55:40.744Z,7.28
2022-07-25T03:56:12.726Z,6.75
2022-07-25T03:56:45.908Z,6.43
2022-07-25T03:57:18.016Z,6.72
2022-07-25T03:57:50.265Z,6.68
2022-07-25T03:58:22.395Z,6.75
2022-07-25T03:58:54.504Z,6.57
2022-07-25T03:59:26.774Z,6.15
2022-07-25T03:59:58.810Z,6.68
2022-07-25T04:00:30.880Z,7.13
2022-07-25T04:01:02.983Z,7.00
2022-07-25T04:01:36.376Z,6.88
2022-07-25T04:02:08.572Z,7.13
2022-07-25T04:02:40.780Z,6.95
2022-07-25T04:03:12.900Z,6.60
2022-07-25T04:03:45.011Z,6.47
2022-07-25T04:04:17.741Z,6.40
2022-07-25T04:04:49.797Z,6.70
2022-07-25T04:05:21.981Z,6.80
2022-07-25T04:05:54.016Z,7.10
2022-07-25T04:06:26.253Z,7.20
2022-07-25T04:06:58.299Z,6.65
2022-07-25T04:07:30.371Z,7.28
2022-07-25T04:08:02.325Z,6.78
2022-07-25T04:08:34.332Z,7.18
2022-07-25T04:09:06.970Z,7.55
2022-07-25T04:09:39.041Z,6.53
2022-07-25T04:10:11.616Z,6.88
2022-07-25T04:10:43.621Z,7.05
2022-07-25T04:11:15.735Z,7.00
2022-07-25T04:11:47.828Z,6.80
2022-07-25T04:12:19.892Z,6.32
2022-07-25T04:12:52.026Z,6.78
2022-07-25T04:13:24.119Z,6.88
2022-07-25T04:13:56.915Z,6.72
2022-07-25T04:14:29.120Z,7.32
2022-07-25T04:15:01.247Z,6.13
2022-07-25T04:15:33.323Z,6.30
2022-07-25T04:16:05.990Z,6.50
2022-07-25T04:16:38.225Z,6.50
2022-07-25T04:17:11.992Z,6.68
2022-07-25T04:17:44.168Z,6.90
2022-07-25T04:18:20.870Z,7.20
2022-07-25T04:18:57.406Z,6.28
2022-07-25T04:19:29.699Z,6.63
2022-07-25T04:20:02.639Z,6.63
2022-07-25T04:20:37.767Z,6.35
2022-07-25T04:21:10.126Z,6.28
2022-07-25T04:21:42.222Z,7.18
2022-07-25T04:22:14.271Z,6.20
2022-07-25T04:22:47.192Z,6.97
2022-07-25T04:23:19.424Z,6.85
2022-07-25T04:23:51.863Z,6.35
2022-07-25T04:24:23.903Z,6.55
2022-07-25T04:24:55.909Z,6.75
2022-07-25T04:25:27.922Z,6.97
2022-07-25T04:26:00.251Z,6.38
2022-07-25T04:26:32.394Z,6.40
2022-07-25T04:27:04.478Z,6.85
2022-07-25T04:27:36.575Z,6.50
2022-07-25T04:28:08.771Z,7.03
2022-07-25T04:28:40.790Z,6.85
2022-07-25T04:29:12.797Z,6.97
2022-07-25T04:29:44.779Z,7.07
2022-07-25T04:30:24.155Z,6.60
2022-07-25T04:30:56.942Z,6.78
2022-07-25T04:31:29.133Z,7.18
2022-07-25T04:32:01.222Z,7.28
2022-07-25T04:32:33.311Z,7.45
2022-07-25T04:33:05.402Z,6.40
2022-07-25T04:33:37.826Z,7.03
2022-07-25T04:34:10.279Z,6.95
2022-07-25T04:34:43.731Z,6.63
2022-07-25T04:35:15.770Z,7.15
2022-07-25T04:35:47.790Z,6.60
2022-07-25T04:36:19.929Z,6.55
2022-07-25T04:36:52.056Z,6.38
2022-07-25T04:37:24.073Z,6.90
2022-07-25T04:37:56.073Z,7.03
2022-07-25T04:38:28.067Z,6.72
2022-07-25T04:39:00.108Z,7.10
2022-07-25T04:39:32.205Z,6.53
2022-07-25T04:40:05.092Z,5.70
2022-07-25T04:40:37.256Z,6.28
2022-07-25T04:41:09.288Z,6.22
2022-07-25T04:41:41.310Z,7.05
2022-07-25T04:42:13.312Z,6.18
2022-07-25T04:42:45.337Z,6.53
2022-07-25T04:43:17.555Z,6.75
2022-07-25T04:43:49.531Z,6.35
2022-07-25T04:44:21.595Z,6.05
2022-07-25T04:44:54.191Z,5.95
2022-07-25T04:45:26.403Z,6.63
2022-07-25T04:45:58.604Z,6.50
2022-07-25T04:46:30.673Z,6.28
2022-07-25T04:47:02.740Z,6.78
2022-07-25T04:47:34.834Z,6.88
2022-07-25T04:48:07.071Z,5.97
2022-07-25T04:48:39.166Z,7.13
2022-07-25T04:49:13.313Z,6.68
2022-07-25T04:49:45.375Z,6.88
2022-07-25T04:50:18.795Z,6.72
2022-07-25T04:50:53.863Z,6.45
2022-07-25T04:51:25.946Z,6.20
2022-07-25T04:51:58.033Z,7.20
2022-07-25T04:52:30.109Z,6.05
2022-07-25T04:53:02.102Z,6.70
2022-07-25T04:53:34.135Z,7.05
2022-07-25T04:54:06.838Z,6.70
2022-07-25T04:54:39.157Z,6.53
2022-07-25T04:55:11.468Z,6.63
2022-07-25T04:55:43.490Z,6.93
2022-07-25T04:56:15.673Z,6.72
2022-07-25T04:56:47.690Z,6.53
2022-07-25T04:57:21.926Z,7.10
2022-07-25T04:57:53.985Z,7.45
2022-07-25T04:58:26.057Z,6.85
2022-07-25T04:59:03.157Z,7.15
2022-07-25T04:59:38.655Z,6.95
2022-07-25T05:00:11.517Z,7.10
2022-07-25T05:00:43.684Z,6.63
2022-07-25T05:01:15.856Z,7.25
2022-07-25T05:01:47.962Z,7.68
2022-07-25T05:02:20.224Z,7.32
2022-07-25T05:02:52.389Z,7.13
2022-07-25T05:03:24.866Z,7.18
2022-07-25T05:03:56.886Z,7.45
2022-07-25T05:04:28.980Z,6.45
2022-07-25T05:05:02.902Z,7.20
2022-07-25T05:05:35.463Z,7.70
2022-07-25T05:06:07.603Z,7.10
2022-07-25T05:06:39.668Z,7.88
2022-07-25T05:07:11.763Z,7.53
2022-07-25T05:07:44.175Z,7.30
2022-07-25T05:08:16.276Z,7.97
2022-07-25T05:08:48.435Z,7.80
2022-07-25T05:09:20.432Z,7.88
2022-07-25T05:09:52.517Z,7.53
2022-07-25T05:10:25.530Z,7.40
2022-07-25T05:10:57.678Z,7.45
2022-07-25T05:11:29.848Z,8.65
2022-07-25T05:12:01.825Z,7.65
2022-07-25T05:12:35.034Z,7.78
2022-07-25T05:13:07.062Z,7.60
2022-07-25T05:13:39.256Z,7.43
2022-07-25T05:14:11.303Z,7.60
2022-07-25T05:14:43.350Z,6.85
2022-07-25T05:15:16.057Z,7.32
2022-07-25T05:15:48.123Z,6.65
2022-07-25T05:16:20.123Z,6.75
2022-07-25T05:16:52.216Z,6.75
2022-07-25T05:17:24.280Z,7.22
2022-07-25T05:17:56.274Z,6.80
2022-07-25T05:18:28.306Z,6.88
2022-07-25T05:19:00.369Z,7.03
2022-07-25T05:19:32.380Z,6.20
2022-07-25T05:20:04.593Z,7.10
2022-07-25T05:20:36.753Z,6.70
2022-07-25T05:21:12.228Z,6.50
2022-07-25T05:21:44.242Z,6.97
2022-07-25T05:22:17.283Z,6.57
2022-07-25T05:22:49.407Z,7.35
2022-07-25T05:23:22.424Z,6.72
2022-07-25T05:23:54.579Z,7.38
2022-07-25T05:24:26.941Z,6.70
2022-07-25T05:24:59.684Z,7.25
2022-07-25T05:25:31.717Z,6.50
2022-07-25T05:26:03.738Z,7.38
2022-07-25T05:26:35.746Z,6.50
2022-07-25T05:27:07.834Z,6.47
2022-07-25T05:27:40.369Z,6.50
2022-07-25T05:28:14.807Z,6.15
2022-07-25T05:28:46.895Z,6.55
2022-07-25T05:29:18.938Z,5.60
2022-07-25T05:29:50.964Z,6.07
2022-07-25T05:30:23.026Z,5.55
2022-07-25T05:30:55.074Z,6.35
2022-07-25T05:31:27.179Z,6.20
2022-07-25T05:31:59.448Z,5.80
2022-07-25T05:32:31.864Z,5.65
2022-07-25T05:33:03.940Z,6.20
2022-07-25T05:33:35.966Z,6.45
2022-07-25T05:34:08.513Z,5.88
2022-07-25T05:34:40.764Z,6.20
2022-07-25T05:35:12.896Z,6.47
2022-07-25T05:35:45.022Z,6.05
2022-07-25T05:36:18.373Z,6.60
2022-07-25T05:36:50.362Z,6.80
2022-07-25T05:37:22.412Z,6.43
2022-07-25T05:37:54.475Z,6.00
2022-07-25T05:38:26.703Z,6.68
2022-07-25T05:38:58.827Z,5.97
2022-07-25T05:39:30.858Z,6.78
2022-07-25T05:40:03.582Z,6.35
2022-07-25T05:40:35.737Z,6.10
2022-07-25T05:41:07.822Z,6.28
2022-07-25T05:41:39.827Z,6.15
2022-07-25T05:42:11.874Z,6.47
2022-07-25T05:42:43.971Z,6.60
2022-07-25T05:43:15.997Z,5.93
2022-07-25T05:43:48.816Z,5.88
2022-07-25T05:44:20.929Z,5.75
2022-07-25T05:44:53.008Z,6.10
2022-07-25T05:45:25.080Z,5.85
2022-07-25T05:46:03.794Z,6.10
2022-07-25T05:46:36.068Z,6.40
2022-07-25T05:47:11.450Z,6.10
2022-07-25T05:47:43.644Z,6.15
2022-07-25T05:48:15.702Z,6.20
2022-07-25T05:48:47.828Z,6.05
2022-07-25T05:49:19.989Z,5.85
2022-07-25T05:49:52.117Z,6.55
2022-07-25T05:50:24.147Z,5.40
2022-07-25T05:50:56.785Z,6.07
2022-07-25T05:51:28.800Z,5.78
2022-07-25T05:52:00.834Z,6.07
2022-07-25T05:52:32.866Z,6.50
2022-07-25T05:53:04.904Z,5.88
2022-07-25T05:53:37.239Z,5.75
2022-07-25T05:54:09.822Z,6.38
2022-07-25T05:54:42.894Z,5.50
2022-07-25T05:55:15.882Z,5.55
2022-07-25T05:55:47.903Z,6.35
2022-07-25T05:56:20.243Z,5.90
2022-07-25T05:56:52.275Z,5.40
2022-07-25T05:57:24.259Z,6.25
2022-07-25T05:57:56.745Z,6.80
2022-07-25T05:58:30.037Z,6.20
2022-07-25T05:59:02.307Z,6.10
2022-07-25T05:59:34.602Z,5.95
2022-07-25T06:00:06.966Z,5.75
2022-07-25T06:00:39.296Z,6.43
2022-07-25T06:01:15.150Z,5.97
2022-07-25T06:01:47.349Z,6.68
2022-07-25T06:02:19.568Z,5.63
2022-07-25T06:02:51.967Z,5.80
2022-07-25T06:03:24.241Z,5.90
2022-07-25T06:03:56.320Z,6.10
2022-07-25T06:04:28.400Z,6.22
2022-07-25T06:05:00.477Z,6.00
2022-07-25T06:05:32.556Z,6.10
2022-07-25T06:06:04.712Z,6.50
2022-07-25T06:06:36.743Z,6.15
2022-07-25T06:07:08.775Z,5.55
2022-07-25T06:07:42.988Z,5.68
2022-07-25T06:08:15.373Z,6.60
2022-07-25T06:08:47.829Z,5.97
2022-07-25T06:09:21.330Z,5.88
2022-07-25T06:09:53.413Z,5.30
2022-07-25T06:10:25.478Z,5.70
2022-07-25T06:10:58.451Z,5.78
2022-07-25T06:11:31.565Z,6.22
2022-07-25T06:12:04.961Z,5.60
2022-07-25T06:12:37.022Z,5.78
2022-07-25T06:13:09.147Z,6.05
2022-07-25T06:13:42.622Z,6.13
2022-07-25T06:14:14.968Z,6.00
2022-07-25T06:14:47.037Z,5.57
2022-07-25T06:15:22.490Z,5.80
2022-07-25T06:15:58.937Z,5.95
2022-07-25T06:16:31.178Z,5.90
2022-07-25T06:17:03.357Z,6.18
2022-07-25T06:17:35.466Z,5.75
2022-07-25T06:18:07.577Z,6.10
2022-07-25T06:18:39.599Z,5.43
2022-07-25T06:19:11.683Z,5.88
2022-07-25T06:19:43.782Z,5.70
2022-07-25T06:20:15.870Z,6.72
2022-07-25T06:20:48.824Z,5.65
2022-07-25T06:21:20.890Z,5.90
2022-07-25T06:21:52.918Z,5.68
2022-07-25T06:22:24.955Z,6.18
2022-07-25T06:22:57.027Z,5.65
2022-07-25T06:23:29.030Z,5.75
2022-07-25T06:24:01.176Z,6.00
2022-07-25T06:24:33.280Z,5.90
2022-07-25T06:25:05.522Z,5.78
2022-07-25T06:25:37.585Z,6.78
2022-07-25T06:26:10.249Z,5.28
2022-07-25T06:26:42.867Z,4.97
2022-07-25T06:27:19.911Z,5.93
2022-07-25T06:27:52.575Z,5.50
2022-07-25T06:28:24.673Z,5.28
2022-07-25T06:28:56.873Z,5.55
2022-07-25T06:29:28.883Z,5.63
2022-07-25T06:30:00.936Z,5.57
2022-07-25T06:30:33.043Z,5.63
2022-07-25T06:31:05.280Z,5.13
2022-07-25T06:31:37.518Z,5.47
2022-07-25T06:32:09.715Z,5.65
2022-07-25T06:32:41.765Z,5.32
2022-07-25T06:33:13.762Z,6.05
2022-07-25T06:33:45.873Z,5.68
2022-07-25T06:34:17.907Z,5.07
2022-07-25T06:34:50.033Z,5.53
2022-07-25T06:35:22.103Z,5.30
2022-07-25T06:35:54.201Z,5.85
2022-07-25T06:36:32.659Z,5.78
2022-07-25T06:37:05.103Z,5.82
2022-07-25T06:37:38.738Z,5.90
2022-07-25T06:38:10.799Z,6.00
2022-07-25T06:38:42.883Z,5.28
2022-07-25T06:39:15.101Z,5.28
2022-07-25T06:39:47.196Z,5.80
2022-07-25T06:40:19.250Z,5.53
2022-07-25T06:40:51.293Z,5.20
2022-07-25T06:41:23.355Z,5.25
2022-07-25T06:41:55.445Z,5.78
2022-07-25T06:42:30.610Z,5.40
2022-07-25T06:43:02.932Z,5.70
2022-07-25T06:43:35.008Z,5.20
2022-07-25T06:44:07.554Z,5.82
2022-07-25T06:44:39.948Z,5.18
2022-07-25T06:45:12.556Z,5.38
2022-07-25T06:45:47.465Z,5.97
2022-07-25T06:46:19.669Z,5.40
2022-07-25T06:46:51.796Z,5.18
2022-07-25T06:47:23.826Z,5.55
2022-07-25T06:47:55.902Z,5.40
2022-07-25T06:48:28.027Z,5.20
2022-07-25T06:49:00.482Z,5.10
2022-07-25T06:49:32.606Z,5.47
2022-07-25T06:50:08.158Z,5.70
2022-07-25T06:50:43.729Z,5.28
2022-07-25T06:51:15.813Z,5.00
2022-07-25T06:51:47.952Z,6.00
2022-07-25T06:52:19.967Z,5.32
2022-07-25T06:52:52.076Z,5.70
2022-07-25T06:53:24.156Z,5.20
2022-07-25T06:53:56.758Z,5.38
2022-07-25T06:54:28.737Z,5.30
2022-07-25T06:55:01.131Z,5.90
2022-07-25T06:55:33.277Z,5.90
2022-07-25T06:56:05.657Z,5.07
2022-07-25T06:56:37.676Z,5.53
2022-07-25T06:57:09.688Z,5.15
2022-07-25T06:57:42.577Z,5.38
2022-07-25T06:58:14.569Z,5.03
2022-07-25T06:58:46.567Z,5.07
2022-07-25T06:59:18.683Z,5.15
2022-07-25T06:59:51.283Z,5.80
2022-07-25T07:00:23.442Z,5.20
2022-07-25T07:00:55.632Z,5.30
2022-07-25T07:01:27.974Z,5.38
2022-07-25T07:02:00.256Z,5.20
2022-07-25T07:02:32.287Z,5.25
2022-07-25T07:03:04.470Z,5.38
2022-07-25T07:03:38.692Z,5.47
2022-07-25T07:04:10.970Z,5.47
2022-07-25T07:04:42.988Z,4.88
2022-07-25T07:05:14.991Z,5.70
2022-07-25T07:05:47.594Z,5.10
2022-07-25T07:06:19.662Z,4.90
2022-07-25T07:06:51.688Z,4.82
2022-07-25T07:07:23.849Z,5.18
2022-07-25T07:07:56.009Z,4.97
2022-07-25T07:08:28.167Z,5.60
2022-07-25T07:09:00.332Z,5.50
2022-07-25T07:09:32.389Z,4.97
2022-07-25T07:10:04.597Z,5.38
2022-07-25T07:10:36.595Z,5.00
2022-07-25T07:11:08.712Z,5.25
2022-07-25T07:11:40.835Z,5.20
2022-07-25T07:12:12.871Z,4.93
2022-07-25T07:12:44.877Z,4.72